Time;durP1;ratioP1;P1;durP2;ratioP2;P2;SDS_P1;SDS_P2;PMS_P1;PMS_P2;Temp;Humidity;BMP_temperature;BMP_pressure;BME280_temperature;BME280_humidity;BME280_pressure;Samples;Min_cycle;Max_cycle;Signal;HPM_P1;HPM_P2
2023/10/01 00:00:11;;;;;;;0.10;0.10;;;;;;;23.82;53.38;102421.34;5070740;28;20056;-62
2023/10/01 00:02:37;;;;;;;0.10;0.10;;;;;;;23.90;53.18;102418.84;5070989;28;20054;-63
2023/10/01 00:05:05;;;;;;;0.10;0.10;;;;;;;23.90;53.20;102418.84;5070665;28;20036;-62
2023/10/01 00:07:30;;;;;;;0.10;0.10;;;;;;;24.06;52.79;102403.22;5067923;28;20425;-62
2023/10/01 00:09:56;;;;;;;0.00;0.00;;;;;;;24.08;52.38;102403.75;5070623;28;20148;-62
2023/10/01 00:12:23;;;;;;;0.10;0.10;;;;;;;23.96;52.46;102398.53;5070549;28;20036;-63
2023/10/01 00:14:49;;;;;;;0.10;0.10;;;;;;;23.85;53.79;102407.06;5070943;28;20017;-62
2023/10/01 00:17:15;;;;;;;0.10;0.10;;;;;;;23.91;53.08;102390.31;5069534;28;20381;-64
2023/10/01 00:19:41;;;;;;;0.10;0.10;;;;;;;23.97;52.57;102396.59;5070279;28;20035;-62
2023/10/01 00:22:07;;;;;;;0.10;0.10;;;;;;;23.93;52.96;102382.63;5070011;28;20032;-63
2023/10/01 00:24:33;;;;;;;0.10;0.10;;;;;;;23.94;52.73;102376.00;5070165;28;20032;-63
2023/10/01 00:26:58;;;;;;;0.10;0.10;;;;;;;23.78;53.08;102377.16;5070383;28;20615;-61
2023/10/01 00:29:24;;;;;;;0.10;0.10;;;;;;;23.51;54.72;102385.66;5060572;28;20032;-61
2023/10/01 00:31:49;;;;;;;0.10;0.10;;;;;;;23.15;55.49;102381.19;5063170;28;20056;-62
2023/10/01 00:34:15;;;;;;;0.10;0.10;;;;;;;22.88;56.65;102380.56;5070611;28;20090;-63
2023/10/01 00:36:43;;;;;;;0.10;0.10;;;;;;;23.20;54.79;102383.94;5070330;28;20036;-63
2023/10/01 00:39:09;;;;;;;0.10;0.10;;;;;;;23.57;54.40;102374.69;5069907;28;20055;-62
2023/10/01 00:41:34;;;;;;;0.03;0.03;;;;;;;23.57;54.11;102377.44;5050931;28;20396;-61
2023/10/01 00:44:04;;;;;;;0.03;0.03;;;;;;;23.65;54.07;102374.94;5050646;28;20045;-61
2023/10/01 00:46:31;;;;;;;0.10;0.10;;;;;;;23.63;53.85;102374.38;5050173;28;20091;-62
2023/10/01 00:49:00;;;;;;;0.10;0.10;;;;;;;23.12;55.88;102384.47;5050191;28;20562;-62
2023/10/01 00:51:26;;;;;;;0.10;0.10;;;;;;;23.64;53.71;102381.53;5050737;28;20044;-63
2023/10/01 00:53:52;;;;;;;0.10;0.10;;;;;;;23.43;54.72;102382.63;5060623;28;20187;-62
2023/10/01 00:56:20;;;;;;;0.10;0.10;;;;;;;22.41;58.34;102379.78;5070256;28;20033;-63
2023/10/01 00:58:45;;;;;;;0.10;0.10;;;;;;;23.18;55.95;102383.38;5069680;28;20310;-61
2023/10/01 01:01:13;;;;;;;0.10;0.10;;;;;;;23.72;53.91;102378.25;5070102;28;20037;-62
2023/10/01 01:03:39;;;;;;;0.10;0.10;;;;;;;23.41;54.91;102373.84;5070273;28;20454;-61
2023/10/01 01:06:13;;;;;;;0.10;0.10;;;;;;;23.59;54.82;102369.75;5052647;28;20044;-62
2023/10/01 01:08:47;;;;;;;0.10;0.10;;;;;;;23.86;53.80;102356.53;5070279;28;20107;-62
2023/10/01 01:11:16;;;;;;;0.10;0.10;;;;;;;23.61;54.74;102362.03;5070519;28;20455;-62
2023/10/01 01:13:45;;;;;;;0.00;0.00;;;;;;;23.64;54.79;102345.84;5069808;28;20036;-62
2023/10/01 01:16:19;;;;;;;0.10;0.10;;;;;;;23.77;54.06;102347.19;5059747;28;20124;-61
2023/10/01 01:18:46;;;;;;;0.10;0.10;;;;;;;23.65;54.01;102343.91;5050028;28;20040;-62
2023/10/01 01:21:13;;;;;;;0.10;0.10;;;;;;;23.68;53.75;102344.22;5049714;28;20056;-62
2023/10/01 01:23:41;;;;;;;0.10;0.10;;;;;;;23.69;54.18;102345.84;5050173;28;20484;-61
2023/10/01 01:26:07;;;;;;;0.10;0.10;;;;;;;23.66;54.26;102340.91;5037396;28;20500;-63
2023/10/01 01:28:35;;;;;;;0.10;0.10;;;;;;;23.79;53.63;102340.34;5066374;28;20040;-62
2023/10/01 01:31:03;;;;;;;0.05;0.05;;;;;;;23.43;55.14;102341.44;5069981;28;20040;-62
2023/10/01 01:33:32;;;;;;;0.10;0.10;;;;;;;23.48;55.08;102338.72;5069459;28;20124;-63
2023/10/01 01:35:59;;;;;;;0.10;0.10;;;;;;;23.44;55.00;102337.63;5069857;28;20028;-62
2023/10/01 01:38:24;;;;;;;0.10;0.10;;;;;;;23.56;54.41;102321.72;5069412;28;20041;-62
2023/10/01 01:40:52;;;;;;;0.00;0.00;;;;;;;23.42;55.15;102331.59;5054986;28;20044;-62
2023/10/01 01:43:30;;;;;;;0.10;0.10;;;;;;;23.54;54.72;102343.13;5049390;28;20126;-63
2023/10/01 01:46:03;;;;;;;0.10;0.10;;;;;;;23.89;53.16;102334.84;5049330;28;20116;-63
2023/10/01 01:50:55;;;;;;;0.10;0.10;;;;;;;23.71;54.08;102334.56;5049722;28;20032;-61
2023/10/01 01:53:21;;;;;;;0.10;0.10;;;;;;;23.68;53.72;102330.47;5049105;28;20036;-62
2023/10/01 01:55:50;;;;;;;0.10;0.10;;;;;;;23.74;54.13;102334.88;5049099;28;20497;-62
2023/10/01 01:58:23;;;;;;;0.10;0.10;;;;;;;23.78;53.90;102332.38;5049361;28;20033;-62
2023/10/01 02:01:08;;;;;;;0.10;0.10;;;;;;;23.97;53.36;102339.75;5049292;28;20052;-62
2023/10/01 02:03:39;;;;;;;0.00;0.00;;;;;;;24.10;52.68;102341.13;5049228;28;20124;-63
2023/10/01 02:06:08;;;;;;;0.10;0.10;;;;;;;22.80;57.24;102352.88;5049102;28;20041;-60
2023/10/01 02:08:54;;;;;;;0.10;0.10;;;;;;;23.79;53.81;102343.09;5049448;28;20415;-61
2023/10/01 02:11:20;;;;;;;0.10;0.10;;;;;;;23.53;54.61;102338.72;5059600;28;20036;-62
2023/10/01 02:13:51;;;;;;;0.10;0.10;;;;;;;23.72;54.49;102344.47;5069037;28;20523;-64
2023/10/01 02:18:57;;;;;;;0.08;0.08;;;;;;;23.95;53.05;102339.22;5049082;28;20037;-63
2023/10/01 02:21:42;;;;;;;0.10;0.10;;;;;;;23.43;54.69;102339.53;5047367;28;20128;-62
2023/10/01 02:24:12;;;;;;;0.10;0.10;;;;;;;23.40;54.13;102333.78;5058273;28;20031;-62
2023/10/01 02:26:39;;;;;;;0.10;0.10;;;;;;;23.35;55.44;102331.06;5069114;28;20048;-63
2023/10/01 02:29:05;;;;;;;0.10;0.10;;;;;;;23.93;52.91;102324.13;5068544;28;20403;-61
2023/10/01 02:31:35;;;;;;;0.10;0.10;;;;;;;23.95;52.88;102321.91;5068577;28;20036;-61
2023/10/01 02:34:02;;;;;;;0.10;0.10;;;;;;;23.81;52.76;102318.91;5069009;28;20123;-62
2023/10/01 02:36:30;;;;;;;0.08;0.08;;;;;;;23.93;52.77;102321.38;5068944;28;20056;-63
2023/10/01 02:38:55;;;;;;;0.10;0.10;;;;;;;23.92;52.36;102317.78;5069279;28;20086;-62
2023/10/01 02:41:25;;;;;;;0.10;0.10;;;;;;;23.78;52.94;102324.16;5068496;28;20037;-62
2023/10/01 02:43:55;;;;;;;0.10;0.10;;;;;;;23.72;53.00;102317.84;5068694;28;20045;-62
2023/10/01 02:46:26;;;;;;;0.10;0.10;;;;;;;24.02;52.30;102323.28;5068704;28;20052;-64
2023/10/01 02:49:03;;;;;;;0.10;0.10;;;;;;;23.82;52.46;102315.06;5068899;28;20037;-62
2023/10/01 02:51:38;;;;;;;0.10;0.10;;;;;;;23.73;52.94;102307.66;5048673;28;20083;-63
2023/10/01 02:54:06;;;;;;;0.10;0.10;;;;;;;23.84;52.39;102312.84;5048920;28;20025;-62
2023/10/01 02:56:37;;;;;;;0.10;0.10;;;;;;;23.69;53.12;102306.56;5048933;28;20116;-62
2023/10/01 02:59:13;;;;;;;0.00;0.00;;;;;;;23.90;52.55;102306.25;5048649;28;20029;-61
2023/10/01 03:01:42;;;;;;;0.10;0.10;;;;;;;24.05;51.79;102303.53;5048524;28;20037;-63
2023/10/01 03:04:18;;;;;;;0.03;0.03;;;;;;;23.85;52.11;102291.72;5029996;28;20025;-61
2023/10/01 03:06:55;;;;;;;0.00;0.00;;;;;;;23.97;51.86;102300.47;5048338;28;20033;-61
2023/10/01 03:09:33;;;;;;;0.10;0.10;;;;;;;23.65;52.66;102303.56;5048289;28;20032;-62
2023/10/01 03:14:59;;;;;;;0.00;0.00;;;;;;;23.49;53.03;102297.28;5048645;28;20602;-63
2023/10/01 03:17:27;;;;;;;0.10;0.10;;;;;;;23.81;52.42;102304.38;5048394;28;20065;-62
2023/10/01 03:19:53;;;;;;;0.10;0.10;;;;;;;23.74;52.56;102298.34;5055034;28;20303;-63
2023/10/01 03:22:27;;;;;;;0.08;0.08;;;;;;;23.82;52.02;102298.59;5070040;28;20048;-63
2023/10/01 03:24:53;;;;;;;0.10;0.10;;;;;;;23.14;53.65;102301.91;5071616;28;20446;-63
2023/10/01 03:27:27;;;;;;;0.10;0.10;;;;;;;23.81;52.26;102294.22;5071884;28;20033;-62
2023/10/01 03:30:19;;;;;;;0.10;0.10;;;;;;;23.44;53.08;102286.31;5054543;28;20150;-61
2023/10/01 03:32:46;;;;;;;0.10;0.10;;;;;;;23.85;51.95;102286.22;5072317;28;20469;-61
2023/10/01 03:35:12;;;;;;;0.10;0.10;;;;;;;23.98;51.51;102277.44;5054053;28;20036;-63
2023/10/01 03:37:38;;;;;;;0.10;0.10;;;;;;;23.68;51.79;102280.25;5071966;28;20032;-62
2023/10/01 03:40:07;;;;;;;0.10;0.10;;;;;;;23.27;53.26;102287.66;5063492;28;20404;-63
2023/10/01 03:42:36;;;;;;;0.10;0.10;;;;;;;23.85;51.63;102284.31;5051788;28;20404;-61
2023/10/01 03:47:36;;;;;;;0.10;0.10;;;;;;;23.57;52.11;102276.69;5051918;28;20119;-62
2023/10/01 03:50:08;;;;;;;0.10;0.10;;;;;;;24.03;50.78;102277.44;5051451;28;20039;-62
2023/10/01 03:52:39;;;;;;;0.10;0.10;;;;;;;23.76;51.55;102271.44;5051648;28;20429;-61
2023/10/01 03:55:25;;;;;;;0.05;0.05;;;;;;;23.63;51.59;102267.34;5051421;28;20033;-62
2023/10/01 03:58:07;;;;;;;0.10;0.10;;;;;;;23.80;51.34;102267.03;5051378;28;20462;-62
2023/10/01 04:03:06;;;;;;;0.10;0.10;;;;;;;23.30;52.36;102268.72;5051384;28;20033;-60
2023/10/01 04:05:33;;;;;;;0.10;0.10;;;;;;;23.82;51.97;102256.59;5036849;28;20476;-62
2023/10/01 04:08:04;;;;;;;0.10;0.10;;;;;;;23.69;51.52;102265.41;5061440;28;20119;-61
2023/10/01 04:10:31;;;;;;;;;;;;;;;23.22;53.01;102277.50;5071163;28;20039;-61
2023/10/01 04:13:00;;;;;;;0.10;0.10;;;;;;;23.43;52.43;102267.38;5070945;28;19912;-63
2023/10/01 04:15:29;;;;;;;0.10;0.10;;;;;;;23.92;51.25;102257.38;5067973;28;20068;-62
2023/10/01 04:23:48;;;;;;;0.15;0.15;;;;;;;23.93;51.48;102267.28;4988691;28;20065;-62
2023/10/01 04:26:18;;;;;;;0.00;0.00;;;;;;;24.10;50.25;102259.53;4998858;28;20050;-63
2023/10/01 04:28:50;;;;;;;0.10;0.10;;;;;;;23.90;50.82;102267.81;5008481;28;20553;-63
2023/10/01 04:31:19;;;;;;;0.10;0.10;;;;;;;23.68;51.60;102274.75;5008489;28;20049;-62
2023/10/01 04:33:49;;;;;;;0.10;0.10;;;;;;;23.97;50.69;102270.28;5006957;28;20132;-62
2023/10/01 04:36:20;;;;;;;0.10;0.10;;;;;;;23.53;52.02;102272.84;5008275;28;20441;-62
2023/10/01 04:39:00;;;;;;;0.10;0.10;;;;;;;23.55;52.25;102268.72;5008522;28;20034;-63
2023/10/01 04:41:25;;;;;;;0.10;0.10;;;;;;;23.92;51.01;102275.78;5008126;28;20042;-63
2023/10/01 04:43:56;;;;;;;0.10;0.10;;;;;;;23.95;51.18;102276.06;4993864;28;20101;-61
2023/10/01 04:46:24;;;;;;;;;;;;;;;24.18;50.62;102277.38;4988934;28;20125;-61
2023/10/01 04:48:51;;;;;;;0.10;0.10;;;;;;;24.27;50.37;102270.19;4995013;28;20302;-62
2023/10/01 04:51:17;;;;;;;0.10;0.10;;;;;;;24.16;50.62;102274.91;4989322;28;20514;-62
2023/10/01 04:53:46;;;;;;;0.10;0.10;;;;;;;24.17;50.74;102281.22;4988560;28;20042;-62
2023/10/01 04:56:20;;;;;;;0.10;0.10;;;;;;;24.25;50.37;102281.44;4988387;28;20176;-62
2023/10/01 04:58:46;;;;;;;0.10;0.10;;;;;;;24.11;51.07;102272.19;5002361;28;20653;-61
2023/10/01 05:01:12;;;;;;;0.10;0.10;;;;;;;24.03;51.08;102272.75;5023884;28;20057;-61
2023/10/01 05:03:38;;;;;;;0.10;0.10;;;;;;;24.30;50.45;102281.44;5045595;28;20041;-61
2023/10/01 05:06:12;;;;;;;0.00;0.00;;;;;;;24.18;50.92;102272.69;5030511;28;20025;-65
2023/10/01 05:08:38;;;;;;;0.10;0.10;;;;;;;24.11;51.35;102274.09;5031297;28;20044;-62
2023/10/01 05:11:11;;;;;;;0.10;0.10;;;;;;;24.25;50.91;102275.16;5030198;28;20537;-61
2023/10/01 05:13:41;;;;;;;0.10;0.10;;;;;;;24.14;51.50;102279.84;5047009;28;20045;-62
2023/10/01 05:16:14;;;;;;;0.00;0.00;;;;;;;24.32;51.10;102275.66;5049869;28;20033;-63
2023/10/01 05:18:45;;;;;;;0.10;0.10;;;;;;;24.06;51.10;102271.34;5054982;28;20319;-63
2023/10/01 05:21:14;;;;;;;0.10;0.10;;;;;;;24.09;51.15;102270.81;5069031;28;20036;-62
2023/10/01 05:23:40;;;;;;;0.10;0.10;;;;;;;23.92;51.56;102273.06;5050306;28;20020;-62
2023/10/01 05:26:08;;;;;;;0.10;0.10;;;;;;;24.06;51.29;102269.44;5054642;28;20194;-62
2023/10/01 05:28:36;;;;;;;0.00;0.00;;;;;;;23.75;52.29;102278.84;5069964;28;20035;-63
2023/10/01 05:31:06;;;;;;;0.10;0.10;;;;;;;23.97;51.15;102273.84;5070071;28;20496;-61
2023/10/01 05:33:35;;;;;;;0.00;0.00;;;;;;;23.89;51.51;102279.91;5069557;28;20071;-62
2023/10/01 05:36:04;;;;;;;0.10;0.10;;;;;;;24.24;50.09;102281.72;5069908;28;20028;-61
2023/10/01 05:38:34;;;;;;;0.03;0.03;;;;;;;24.28;50.30;102278.16;5069529;28;20041;-61
2023/10/01 05:41:09;;;;;;;0.10;0.10;;;;;;;24.07;50.88;102284.84;5069212;28;20267;-61
2023/10/01 05:43:37;;;;;;;0.10;0.10;;;;;;;24.20;50.81;102286.97;5069109;28;20043;-62
2023/10/01 05:46:08;;;;;;;0.10;0.10;;;;;;;24.25;50.60;102294.38;5068934;28;20029;-61
2023/10/01 05:48:39;;;;;;;0.10;0.10;;;;;;;23.23;53.60;102303.03;5069346;28;20519;-63
2023/10/01 05:51:11;;;;;;;0.10;0.10;;;;;;;24.04;51.33;102292.78;5069074;28;20044;-63
2023/10/01 05:53:40;;;;;;;0.08;0.08;;;;;;;24.26;51.22;102298.75;5069990;28;20111;-62
2023/10/01 05:56:07;;;;;;;0.10;0.10;;;;;;;24.25;51.08;102288.88;5069047;28;20408;-63
2023/10/01 05:58:33;;;;;;;0.10;0.10;;;;;;;24.24;51.08;102309.22;5069015;28;20059;-62
2023/10/01 06:01:05;;;;;;;0.10;0.10;;;;;;;23.92;52.06;102306.00;5069012;28;20037;-63
2023/10/01 06:03:31;;;;;;;0.10;0.10;;;;;;;24.13;51.50;102300.19;5068677;28;20058;-61
2023/10/01 06:05:59;;;;;;;0.03;0.03;;;;;;;24.20;51.58;102297.13;5069429;28;20036;-62
2023/10/01 06:08:26;;;;;;;0.10;0.10;;;;;;;24.30;50.93;102294.34;5068694;28;20039;-62
2023/10/01 06:11:09;;;;;;;0.00;0.00;;;;;;;24.12;51.68;102292.22;5068967;28;20127;-62
2023/10/01 06:13:38;;;;;;;0.10;0.10;;;;;;;24.30;51.35;102286.94;5068664;28;20036;-62
2023/10/01 06:16:13;;;;;;;0.10;0.10;;;;;;;24.85;49.35;102282.25;5059670;28;20067;-62
2023/10/01 06:18:49;;;;;;;0.00;0.00;;;;;;;25.03;48.96;102284.31;5048719;28;20091;-62
2023/10/01 06:21:17;;;;;;;0.00;0.00;;;;;;;25.31;48.08;102291.81;5067667;28;20090;-63
2023/10/01 06:23:49;;;;;;;0.10;0.10;;;;;;;25.20;48.48;102296.56;5069148;28;20017;-61
2023/10/01 06:26:42;;;;;;;0.10;0.10;;;;;;;24.86;49.09;102293.00;5068403;28;20097;-62
2023/10/01 06:29:11;;;;;;;0.10;0.10;;;;;;;25.21;48.26;102292.72;5050533;28;20037;-62
2023/10/01 06:32:00;;;;;;;0.00;0.00;;;;;;;25.22;48.38;102286.09;5068872;28;20478;-62
2023/10/01 06:34:29;;;;;;;0.08;0.08;;;;;;;25.38;47.59;102291.44;5068620;28;20385;-61
2023/10/01 06:36:58;;;;;;;0.10;0.10;;;;;;;25.24;48.11;102289.38;5068684;28;20060;-62
2023/10/01 06:39:32;;;;;;;0.10;0.10;;;;;;;25.46;47.74;102296.38;5065854;28;20060;-62
2023/10/01 06:42:18;;;;;;;0.10;0.10;;;;;;;25.24;48.40;102296.81;5049021;28;20040;-62
2023/10/01 06:44:44;;;;;;;0.00;0.00;;;;;;;25.40;47.65;102297.53;5048854;28;20041;-61
2023/10/01 06:47:15;;;;;;;0.03;0.03;;;;;;;25.40;47.97;102303.84;5064595;28;20035;-63
2023/10/01 06:49:57;;;;;;;0.00;0.00;;;;;;;25.17;48.54;102297.16;5068413;28;20036;-64
2023/10/01 06:52:24;;;;;;;0.00;0.00;;;;;;;25.34;48.14;102295.88;5068570;28;20131;-63
2023/10/01 06:54:49;;;;;;;0.10;0.10;;;;;;;25.55;47.99;102297.41;5068411;28;20117;-62
2023/10/01 06:57:21;;;;;;;0.00;0.00;;;;;;;25.36;48.30;102304.69;5070382;28;20060;-61
2023/10/01 06:59:47;;;;;;;0.00;0.00;;;;;;;25.47;48.11;102300.78;5072816;28;20517;-62
2023/10/01 07:02:12;;;;;;;0.00;0.00;;;;;;;25.26;48.36;102292.66;5072432;28;20079;-62
2023/10/01 07:04:38;;;;;;;0.00;0.00;;;;;;;25.16;48.83;102289.16;5072078;28;20041;-63
2023/10/01 07:07:20;;;;;;;0.10;0.10;;;;;;;25.63;47.64;102299.53;5072329;28;20036;-61
2023/10/01 07:09:46;;;;;;;0.10;0.10;;;;;;;25.43;48.04;102299.72;5053850;28;20063;-64
2023/10/01 07:12:12;;;;;;;0.10;0.10;;;;;;;25.32;48.14;102298.94;5072129;28;20101;-62
2023/10/01 07:14:43;;;;;;;0.10;0.10;;;;;;;25.77;47.60;102309.56;5072629;28;20028;-61
2023/10/01 07:17:18;;;;;;;0.00;0.00;;;;;;;25.57;47.96;102303.44;5053899;28;20071;-62
2023/10/01 07:19:59;;;;;;;0.00;0.00;;;;;;;25.40;48.38;102292.84;5057773;28;20033;-62
2023/10/01 07:22:34;;;;;;;0.03;0.03;;;;;;;25.11;49.04;102290.03;5071932;28;20110;-62
2023/10/01 07:25:00;;;;;;;0.00;0.00;;;;;;;24.64;50.58;102291.72;5071758;28;20044;-61
2023/10/01 07:27:26;;;;;;;0.00;0.00;;;;;;;24.14;51.47;102292.75;5071555;28;20058;-62
2023/10/01 07:29:54;;;;;;;0.00;0.00;;;;;;;24.81;50.75;102292.19;5072415;28;20024;-63
2023/10/01 07:32:20;;;;;;;0.00;0.00;;;;;;;24.56;50.77;102297.78;5070582;28;20032;-61
2023/10/01 07:34:48;;;;;;;0.05;0.05;;;;;;;24.93;50.17;102298.16;5071813;28;20064;-62
2023/10/01 07:37:37;;;;;;;0.10;0.10;;;;;;;24.71;50.58;102294.94;5071625;28;20033;-61
2023/10/01 07:40:13;;;;;;;0.00;0.00;;;;;;;24.37;51.83;102294.88;5045530;28;20227;-62
2023/10/01 07:42:47;;;;;;;0.10;0.10;;;;;;;24.99;50.06;102291.50;5043230;28;20492;-62
2023/10/01 07:45:19;;;;;;;0.10;0.10;;;;;;;23.97;52.33;102292.25;5071516;28;20541;-63
2023/10/01 07:47:48;;;;;;;0.10;0.10;;;;;;;23.80;52.94;102295.31;5071738;28;20047;-63
2023/10/01 07:50:13;;;;;;;0.10;0.10;;;;;;;24.75;51.18;102302.38;5071519;28;20122;-63
2023/10/01 07:52:40;;;;;;;0.00;0.00;;;;;;;25.15;50.01;102299.38;5071146;28;20119;-62
2023/10/01 07:58:16;;;;;;;0.00;0.00;;;;;;;24.97;50.09;102280.78;5071460;28;20585;-62
2023/10/01 08:00:41;;;;;;;0.00;0.00;;;;;;;25.38;49.67;102285.94;5070847;28;20082;-63
2023/10/01 08:05:48;;;;;;;0.00;0.00;;;;;;;25.39;49.15;102291.19;5071920;28;20067;-61
2023/10/01 08:08:37;;;;;;;0.10;0.10;;;;;;;25.30;49.71;102305.88;5071067;28;20032;-63
2023/10/01 08:11:55;;;;;;;0.00;0.00;;;;;;;25.65;48.98;102302.81;5071092;28;20542;-63
2023/10/01 08:13:57;;;;;;;0.00;0.00;;;;;;;25.07;50.25;102302.72;5070923;28;20032;-62
2023/10/01 08:16:23;;;;;;;0.00;0.00;;;;;;;25.06;50.46;102306.56;5058858;28;20143;-63
2023/10/01 08:18:57;;;;;;;0.00;0.00;;;;;;;25.74;48.91;102298.31;5050926;28;20044;-62
2023/10/01 08:21:30;;;;;;;0.00;0.00;;;;;;;25.25;49.98;102295.72;5090746;28;20062;-62
2023/10/01 08:23:57;;;;;;;0.10;0.10;;;;;;;25.46;49.42;102290.88;5091530;28;20430;-63
2023/10/01 08:29:07;;;;;;;0.00;0.00;;;;;;;26.07;48.30;102295.47;5064046;28;20128;-63
2023/10/01 08:31:50;;;;;;;0.08;0.08;;;;;;;25.14;50.04;102296.88;5050905;28;20041;-62
2023/10/01 08:34:23;;;;;;;0.00;0.00;;;;;;;25.67;49.75;102303.34;5039520;28;20041;-62
2023/10/01 08:36:55;;;;;;;0.00;0.00;;;;;;;25.93;48.25;102308.28;5030335;28;20052;-61
2023/10/01 08:39:34;;;;;;;0.00;0.00;;;;;;;25.85;48.49;102316.34;5043840;28;20396;-62
2023/10/01 08:42:10;;;;;;;0.00;0.00;;;;;;;25.90;48.83;102308.88;5050857;28;20055;-62
2023/10/01 08:45:03;;;;;;;0.00;0.00;;;;;;;26.69;47.80;102301.84;5059792;28;20488;-62
2023/10/01 08:47:37;;;;;;;0.00;0.00;;;;;;;26.68;47.64;102309.31;5012169;28;20056;-62
2023/10/01 08:52:55;;;;;;;0.00;0.00;;;;;;;26.40;47.82;102312.16;5068841;28;20056;-62
2023/10/01 08:55:39;;;;;;;0.00;0.00;;;;;;;26.81;46.76;102318.81;5065921;28;20036;-63
2023/10/01 08:58:15;;;;;;;0.00;0.00;;;;;;;27.03;46.69;102324.53;5047002;28;20044;-63
2023/10/01 09:00:52;;;;;;;0.00;0.00;;;;;;;26.34;47.70;102313.38;5061997;28;20040;-62
2023/10/01 09:03:28;;;;;;;0.00;0.00;;;;;;;26.93;46.88;102311.72;5046364;28;20055;-63
2023/10/01 09:06:04;;;;;;;0.00;0.00;;;;;;;27.61;46.37;102302.88;5069804;28;20035;-62
2023/10/01 09:08:48;;;;;;;0.08;0.08;;;;;;;27.08;45.85;102309.84;5069540;28;20105;-62
2023/10/01 09:11:16;;;;;;;0.00;0.00;;;;;;;27.49;44.96;102299.78;5068641;28;20029;-64
2023/10/01 09:13:58;;;;;;;0.00;0.00;;;;;;;28.02;44.49;102291.91;5069244;28;20059;-63
2023/10/01 09:16:34;;;;;;;0.00;0.00;;;;;;;28.48;43.73;102285.09;5062259;28;20432;-64
2023/10/01 09:21:46;;;;;;;0.00;0.00;;;;;;;27.67;45.91;102290.63;5065417;28;20479;-62
2023/10/01 09:24:38;;;;;;;0.00;0.00;;;;;;;27.69;45.97;102296.66;5067471;28;20303;-63
2023/10/01 09:27:28;;;;;;;0.00;0.00;;;;;;;28.35;44.41;102294.25;5067470;28;20093;-64
2023/10/01 09:32:55;;;;;;;0.00;0.00;;;;;;;28.76;43.28;102302.47;5024352;28;20184;-63
2023/10/01 09:35:30;;;;;;;0.00;0.00;;;;;;;27.90;43.92;102317.25;5034353;28;20029;-64
2023/10/01 09:38:11;;;;;;;0.00;0.00;;;;;;;28.78;42.72;102318.75;5026892;28;20485;-61
2023/10/01 09:40:38;;;;;;;0.00;0.00;;;;;;;28.61;43.47;102311.13;5038400;28;20128;-63
2023/10/01 09:43:04;;;;;;;0.00;0.00;;;;;;;29.15;42.37;102308.19;5034915;28;20517;-63
2023/10/01 09:45:38;;;;;;;0.00;0.00;;;;;;;28.44;43.68;102305.41;5035231;28;20053;-63
2023/10/01 09:48:09;;;;;;;0.00;0.00;;;;;;;29.41;41.58;102311.16;5042084;28;20029;-63
2023/10/01 09:50:41;;;;;;;0.00;0.00;;;;;;;28.00;44.09;102299.69;5024082;28;20116;-62
2023/10/01 09:53:13;;;;;;;0.00;0.00;;;;;;;28.54;43.44;102297.72;5040985;28;20060;-62
2023/10/01 09:55:49;;;;;;;0.00;0.00;;;;;;;28.70;43.22;102294.63;5040994;28;20036;-62
2023/10/01 09:58:24;;;;;;;0.00;0.00;;;;;;;28.04;45.01;102293.25;5035931;28;20296;-64
2023/10/01 10:01:02;;;;;;;0.00;0.00;;;;;;;27.44;44.94;102300.69;5034885;28;20600;-63
2023/10/01 10:03:36;;;;;;;0.00;0.00;;;;;;;28.25;44.52;102299.16;5042317;28;20041;-61
2023/10/01 10:06:09;;;;;;;0.00;0.00;;;;;;;27.49;44.20;102294.25;5034984;28;20156;-61
2023/10/01 10:08:35;;;;;;;0.00;0.00;;;;;;;28.48;41.58;102278.75;5041270;28;20036;-62
2023/10/01 10:11:06;;;;;;;0.00;0.00;;;;;;;27.72;43.62;102273.94;5035929;28;20034;-61
2023/10/01 10:13:45;;;;;;;0.00;0.00;;;;;;;27.89;42.82;102276.09;5034763;28;20346;-62
2023/10/01 10:16:35;;;;;;;0.00;0.00;;;;;;;27.81;43.37;102277.66;5036208;28;20039;-62
2023/10/01 10:19:12;;;;;;;0.00;0.00;;;;;;;27.14;45.01;102273.59;5034285;28;20398;-60
2023/10/01 10:24:31;;;;;;;0.00;0.00;;;;;;;27.60;44.74;102260.63;5034941;28;20041;-62
2023/10/01 10:26:59;;;;;;;0.00;0.00;;;;;;;27.34;45.13;102266.94;5042482;28;20989;-62
2023/10/01 10:29:57;;;;;;;0.00;0.00;;;;;;;28.01;43.76;102260.66;5047733;28;20513;-63
2023/10/01 10:32:27;;;;;;;0.00;0.00;;;;;;;27.54;45.41;102255.50;5045505;28;20045;-62
2023/10/01 10:35:05;;;;;;;0.00;0.00;;;;;;;27.07;45.70;102264.84;5047562;28;20044;-62
2023/10/01 10:37:36;;;;;;;0.00;0.00;;;;;;;27.44;45.61;102264.00;5042213;28;20501;-61
2023/10/01 10:43:04;;;;;;;0.00;0.00;;;;;;;28.06;44.02;102263.34;5053754;28;20032;-62
2023/10/01 10:45:45;;;;;;;0.00;0.00;;;;;;;28.47;42.74;102258.56;5068060;28;20052;-63
2023/10/01 10:48:16;;;;;;;0.00;0.00;;;;;;;28.27;43.31;102264.53;5068963;28;20032;-62
2023/10/01 10:50:46;;;;;;;0.00;0.00;;;;;;;28.04;42.85;102251.78;5069817;28;20427;-64
2023/10/01 10:53:15;;;;;;;0.00;0.00;;;;;;;28.62;41.59;102254.66;5068472;28;20528;-61
2023/10/01 10:56:00;;;;;;;0.00;0.00;;;;;;;28.99;41.58;102246.00;5064901;28;20037;-62
2023/10/01 10:58:28;;;;;;;0.00;0.00;;;;;;;28.10;42.40;102258.84;5059936;28;20037;-61
2023/10/01 11:00:55;;;;;;;0.00;0.00;;;;;;;29.27;40.43;102242.00;5065598;28;20032;-61
2023/10/01 11:03:43;;;;;;;0.00;0.00;;;;;;;29.10;41.77;102244.63;5068014;28;20021;-63
2023/10/01 11:06:17;;;;;;;0.00;0.00;;;;;;;30.24;38.55;102261.16;5067519;28;20491;-62
2023/10/01 11:08:50;;;;;;;0.00;0.00;;;;;;;30.77;37.11;102254.53;5066044;28;20024;-62
2023/10/01 11:11:30;;;;;;;0.00;0.00;;;;;;;28.93;40.62;102254.75;5062322;28;20059;-62
2023/10/01 11:14:00;;;;;;;0.00;0.00;;;;;;;28.59;41.63;102258.06;5065569;28;20068;-62
2023/10/01 11:16:33;;;;;;;0.00;0.00;;;;;;;29.04;40.79;102256.13;5064933;28;20055;-62
2023/10/01 11:19:14;;;;;;;0.00;0.00;;;;;;;28.63;41.64;102268.19;5065974;28;20391;-63
2023/10/01 11:21:54;;;;;;;0.00;0.00;;;;;;;29.19;39.96;102262.13;5066011;28;20101;-63
2023/10/01 11:24:21;;;;;;;0.00;0.00;;;;;;;29.11;40.59;102264.84;5066133;28;20032;-63
2023/10/01 11:27:11;;;;;;;0.00;0.00;;;;;;;28.47;41.54;102258.56;5067388;28;20044;-62
2023/10/01 11:29:39;;;;;;;0.00;0.00;;;;;;;28.35;42.14;102263.00;5065360;28;20044;-61
2023/10/01 11:32:10;;;;;;;0.00;0.00;;;;;;;28.22;41.84;102261.06;5067461;28;20033;-62
2023/10/01 11:34:46;;;;;;;0.00;0.00;;;;;;;28.65;41.30;102256.81;5066109;28;20496;-63
2023/10/01 11:37:16;;;;;;;0.00;0.00;;;;;;;28.63;41.46;102256.31;5066996;28;20036;-62
2023/10/01 11:39:49;;;;;;;0.00;0.00;;;;;;;29.62;40.22;102248.50;5063465;28;20037;-63
2023/10/01 11:42:26;;;;;;;0.00;0.00;;;;;;;29.61;38.81;102252.44;5065457;28;20024;-61
2023/10/01 11:44:52;;;;;;;0.00;0.00;;;;;;;29.38;40.17;102257.22;5052379;28;20043;-63
2023/10/01 11:47:31;;;;;;;0.00;0.00;;;;;;;30.02;38.46;102239.09;5069309;28;20379;-61
2023/10/01 11:50:07;;;;;;;0.00;0.00;;;;;;;28.70;40.68;102237.31;5068007;28;20050;-61
2023/10/01 11:52:34;;;;;;;0.00;0.00;;;;;;;29.74;39.25;102234.13;5070097;28;20025;-64
2023/10/01 11:54:59;;;;;;;0.00;0.00;;;;;;;29.51;40.02;102236.09;5069816;28;20033;-62
2023/10/01 11:57:31;;;;;;;0.00;0.00;;;;;;;29.25;40.60;102229.59;5068532;28;20055;-61
2023/10/01 11:59:58;;;;;;;0.00;0.00;;;;;;;30.17;38.71;102235.06;5069936;28;20475;-62
2023/10/01 12:02:32;;;;;;;0.00;0.00;;;;;;;30.51;37.96;102224.00;5070240;28;20040;-62
2023/10/01 12:05:00;;;;;;;0.00;0.00;;;;;;;31.13;37.85;102225.28;5067865;28;20336;-61
2023/10/01 12:07:32;;;;;;;0.00;0.00;;;;;;;30.90;37.38;102223.06;5069910;28;20036;-62
2023/10/01 12:10:04;;;;;;;0.00;0.00;;;;;;;30.94;37.52;102222.06;5068916;28;20177;-61
2023/10/01 12:12:39;;;;;;;0.00;0.00;;;;;;;30.42;38.41;102202.97;5067363;28;20051;-62
2023/10/01 12:17:51;;;;;;;0.00;0.00;;;;;;;31.23;37.24;102204.69;5070322;28;20047;-63
2023/10/01 12:20:22;;;;;;;0.00;0.00;;;;;;;31.18;36.79;102207.63;5070339;28;20492;-61
2023/10/01 12:23:10;;;;;;;0.00;0.00;;;;;;;30.18;38.53;102204.22;5069146;28;20115;-62
2023/10/01 12:25:46;;;;;;;0.00;0.00;;;;;;;30.40;38.33;102206.06;5068139;28;20029;-62
2023/10/01 12:28:24;;;;;;;0.00;0.00;;;;;;;32.42;35.20;102199.66;5069507;28;20049;-62
2023/10/01 12:31:01;;;;;;;0.00;0.00;;;;;;;31.67;36.08;102198.66;5069226;28;20043;-62